METAR
METAR

METAR

METAR EPSY 301100Z 14002KT 9999 BKN016 01/M01 Q1030=
TAF EPSY 300830Z 3009/3018 15008KT 9999 BKN012 TEMPO 3011/3015 BKN020=
Ostrzeżenia
Ostrzeżenia

Ostrzeżenia

OSTRZEZENIE LOTNISKOWE DLA LOTNISKA SZYMANY WAZNOSC OD: 07:00 30-11-2022 UTC DO: 08:30 30-11-2022 UTC ZJAWISKO: PRZEJSCIE TEMPERATURY POWIETRZA PRZEZ 0 ST. C. PRZEBIEG: W REJONIE LOTNISKA EPSY TEMPERATURA POWIETRZA WZROSNIE POWYZEJ 0 ST. C. OPRACOWAL: LUKASZ NAPIORKOWSKI DNIA 30-11-2022 06:40 UTC NR OSTRZEZENIA: 403/2022